createdAt,value
2022-12-25T00:01:16.820Z,22.03
2022-12-25T00:03:43.752Z,18.80
2022-12-25T00:06:10.440Z,24.33
2022-12-25T00:08:38.033Z,20.13
2022-12-25T00:11:08.088Z,22.53
2022-12-25T00:13:34.651Z,19.93
2022-12-25T00:16:05.938Z,16.90
2022-12-25T00:18:32.342Z,21.43
2022-12-25T00:21:04.701Z,19.07
2022-12-25T00:23:31.474Z,21.40
2022-12-25T00:25:58.569Z,19.03
2022-12-25T00:28:25.856Z,19.50
2022-12-25T00:30:52.429Z,19.70
2022-12-25T00:33:18.923Z,20.93
2022-12-25T00:35:45.530Z,21.93
2022-12-25T00:38:11.939Z,20.27
2022-12-25T00:40:43.899Z,21.37
2022-12-25T00:43:10.384Z,15.53
2022-12-25T00:45:36.940Z,20.10
2022-12-25T00:48:03.541Z,20.83
2022-12-25T00:50:29.916Z,20.60
2022-12-25T00:52:56.365Z,21.53
2022-12-25T00:55:22.771Z,18.47
2022-12-25T00:57:49.187Z,21.07
2022-12-25T01:00:16.381Z,18.20
2022-12-25T01:02:42.915Z,20.20
2022-12-25T01:05:09.664Z,18.73
2022-12-25T01:07:36.059Z,20.20
2022-12-25T01:10:21.114Z,20.27
2022-12-25T01:12:47.600Z,20.83
2022-12-25T01:15:14.058Z,17.23
2022-12-25T01:17:42.070Z,21.53
2022-12-25T01:20:09.774Z,21.30
2022-12-25T01:22:36.129Z,18.23
2022-12-25T01:25:02.673Z,21.20
2022-12-25T01:27:29.028Z,17.77
2022-12-25T01:29:55.381Z,20.33
2022-12-25T01:32:21.706Z,23.07
2022-12-25T01:34:52.073Z,19.97
2022-12-25T01:37:22.205Z,19.10
2022-12-25T01:39:48.558Z,17.60
2022-12-25T01:42:19.966Z,19.03
2022-12-25T01:44:46.307Z,19.57
2022-12-25T01:47:14.725Z,19.93
2022-12-25T01:49:44.015Z,26.13
2022-12-25T01:52:18.789Z,22.90
2022-12-25T01:54:55.706Z,19.80
2022-12-25T01:57:28.672Z,23.53
2022-12-25T01:59:57.470Z,18.37
2022-12-25T02:02:25.107Z,21.37
2022-12-25T02:04:55.851Z,19.60
2022-12-25T02:07:25.553Z,19.90
2022-12-25T02:09:52.817Z,23.93
2022-12-25T02:12:27.032Z,18.03
2022-12-25T02:15:02.891Z,18.50
2022-12-25T02:17:38.541Z,19.57
2022-12-25T02:20:35.356Z,18.93
2022-12-25T02:23:13.157Z,20.10
2022-12-25T02:25:52.872Z,23.70
2022-12-25T02:28:32.413Z,20.37
2022-12-25T02:31:10.722Z,22.03
2022-12-25T02:34:05.510Z,23.03
2022-12-25T02:36:57.397Z,17.90
2022-12-25T02:39:58.767Z,21.13
2022-12-25T02:43:02.648Z,21.50
2022-12-25T02:45:54.739Z,20.77
2022-12-25T02:48:43.186Z,20.97
2022-12-25T02:51:33.326Z,26.20
2022-12-25T02:54:22.491Z,18.47
2022-12-25T02:57:09.693Z,19.20
2022-12-25T02:59:57.335Z,22.60
2022-12-25T03:02:43.677Z,21.70
2022-12-25T03:05:33.229Z,18.60
2022-12-25T03:08:04.556Z,22.07
2022-12-25T03:10:51.645Z,23.50
2022-12-25T03:13:28.103Z,19.57
2022-12-25T03:16:27.809Z,21.00
2022-12-25T03:18:56.818Z,29.70
2022-12-25T03:21:41.880Z,18.00
2022-12-25T03:24:26.705Z,17.83
2022-12-25T03:26:56.506Z,25.70
2022-12-25T03:29:47.157Z,20.07
2022-12-25T03:32:26.697Z,18.57
2022-12-25T03:35:19.087Z,23.00
2022-12-25T03:38:07.262Z,21.70
2022-12-25T03:41:23.029Z,24.73
2022-12-25T03:44:30.158Z,19.47
2022-12-25T03:47:23.866Z,29.50
2022-12-25T03:50:18.424Z,23.53
2022-12-25T03:53:05.588Z,22.67
2022-12-25T03:55:51.129Z,19.37
2022-12-25T03:58:38.912Z,21.23
2022-12-25T04:01:23.789Z,20.40
2022-12-25T04:04:08.504Z,19.67
2022-12-25T04:06:53.521Z,27.03
2022-12-25T04:09:38.459Z,19.03
2022-12-25T04:12:23.709Z,22.97
2022-12-25T04:15:08.630Z,23.27
2022-12-25T04:17:53.685Z,22.70
2022-12-25T04:20:38.727Z,18.80
2022-12-25T04:23:23.521Z,18.77
2022-12-25T04:26:08.493Z,20.27
2022-12-25T04:28:53.288Z,25.03
2022-12-25T04:31:39.825Z,17.00
2022-12-25T04:34:35.578Z,20.83
2022-12-25T04:37:01.888Z,19.47
2022-12-25T04:39:28.209Z,20.10
2022-12-25T04:41:54.562Z,18.50
2022-12-25T04:44:20.932Z,20.53
2022-12-25T04:46:47.304Z,20.13
2022-12-25T04:49:13.796Z,24.00
2022-12-25T04:51:40.203Z,19.30
2022-12-25T04:54:06.546Z,27.00
2022-12-25T04:56:33.391Z,19.50
2022-12-25T04:58:59.951Z,19.07
2022-12-25T05:01:26.517Z,19.27
2022-12-25T05:03:52.986Z,20.67
2022-12-25T05:06:19.715Z,22.10
2022-12-25T05:08:46.249Z,21.30
2022-12-25T05:11:14.906Z,19.10
2022-12-25T05:13:41.882Z,24.50
2022-12-25T05:16:12.359Z,21.97
2022-12-25T05:18:38.760Z,22.60
2022-12-25T05:21:07.709Z,40.73
2022-12-25T05:23:34.518Z,27.77
2022-12-25T05:26:07.881Z,23.13
2022-12-25T05:28:35.494Z,27.77
2022-12-25T05:31:01.877Z,24.57
2022-12-25T05:33:28.249Z,23.77
2022-12-25T05:35:54.588Z,23.80
2022-12-25T05:38:20.988Z,23.53
2022-12-25T05:40:47.361Z,34.50
2022-12-25T05:43:13.723Z,30.40
2022-12-25T05:45:40.046Z,35.93
2022-12-25T05:48:06.604Z,32.63
2022-12-25T05:50:33.053Z,29.67
2022-12-25T05:53:05.944Z,41.33
2022-12-25T05:55:35.781Z,91.47
2022-12-25T05:58:02.266Z,68.43
2022-12-25T06:00:28.736Z,27.90
2022-12-25T06:02:55.480Z,41.77
2022-12-25T06:05:21.898Z,208.83
2022-12-25T06:07:48.245Z,157.40
2022-12-25T06:10:14.735Z,27.07
2022-12-25T06:12:41.128Z,66.10
2022-12-25T06:15:08.429Z,28.10
2022-12-25T06:17:34.794Z,231.70
2022-12-25T06:20:01.128Z,32.23
2022-12-25T06:22:32.224Z,66.17
2022-12-25T06:24:59.544Z,42.23
2022-12-25T06:27:26.587Z,62.20
2022-12-25T06:29:53.323Z,48.23
2022-12-25T06:32:19.671Z,88.40
2022-12-25T06:34:46.049Z,46.27
2022-12-25T06:37:12.371Z,30.97
2022-12-25T06:39:38.691Z,30.40
2022-12-25T06:42:05.037Z,40.10
2022-12-25T06:44:31.528Z,32.37
2022-12-25T06:46:57.893Z,36.00
2022-12-25T06:49:24.244Z,25.60
2022-12-25T06:51:50.597Z,89.87
2022-12-25T06:54:16.986Z,29.10
2022-12-25T06:56:43.298Z,38.63
2022-12-25T06:59:10.888Z,31.07
2022-12-25T07:01:46.555Z,65.50
2022-12-25T07:04:35.408Z,45.07
2022-12-25T07:07:08.452Z,94.37
2022-12-25T07:09:36.121Z,29.83
2022-12-25T07:12:19.941Z,34.70
2022-12-25T07:14:48.911Z,102.37
2022-12-25T07:17:19.763Z,37.80
2022-12-25T07:19:46.873Z,149.90
2022-12-25T07:22:13.952Z,39.23
2022-12-25T07:24:40.483Z,24.50
2022-12-25T07:27:06.933Z,25.57
2022-12-25T07:29:33.465Z,41.40
2022-12-25T07:32:00.110Z,65.77
2022-12-25T07:34:26.558Z,45.57
2022-12-25T07:36:54.687Z,29.80
2022-12-25T07:39:21.021Z,149.93
2022-12-25T07:41:47.360Z,36.17
2022-12-25T07:44:13.822Z,219.87
2022-12-25T07:46:40.166Z,32.93
2022-12-25T07:49:06.628Z,93.93
2022-12-25T07:51:32.996Z,48.57
2022-12-25T07:53:59.526Z,37.63
2022-12-25T07:56:26.084Z,36.53
2022-12-25T07:58:52.432Z,31.23
2022-12-25T08:01:24.831Z,33.53
2022-12-25T08:03:56.904Z,35.53
2022-12-25T08:06:29.346Z,39.67
2022-12-25T08:09:06.936Z,25.50
2022-12-25T08:11:33.444Z,35.73
2022-12-25T08:14:00.200Z,22.30
2022-12-25T08:16:26.584Z,19.47
2022-12-25T08:18:53.375Z,20.47
2022-12-25T08:21:19.749Z,24.80
2022-12-25T08:23:47.060Z,24.00
2022-12-25T08:26:19.541Z,44.10
2022-12-25T08:28:47.014Z,39.63
2022-12-25T08:31:17.156Z,26.37
2022-12-25T08:33:44.188Z,27.20
2022-12-25T08:36:11.954Z,20.63
2022-12-25T08:38:38.832Z,22.07
2022-12-25T08:41:05.628Z,28.33
2022-12-25T08:43:31.952Z,50.23
2022-12-25T08:45:58.401Z,16.93
2022-12-25T08:48:25.217Z,75.23
2022-12-25T08:50:53.683Z,61.77
2022-12-25T08:53:20.481Z,15.23
2022-12-25T08:55:46.997Z,18.50
2022-12-25T08:58:14.543Z,26.33
2022-12-25T09:00:41.124Z,23.37
2022-12-25T09:03:07.560Z,18.30
2022-12-25T09:05:37.983Z,22.07
2022-12-25T09:08:04.694Z,17.43
2022-12-25T09:10:31.040Z,18.70
2022-12-25T09:12:57.387Z,21.77
2022-12-25T09:15:23.992Z,34.00
2022-12-25T09:17:50.342Z,49.23
2022-12-25T09:20:16.698Z,43.13
2022-12-25T09:22:43.043Z,18.80
2022-12-25T09:25:09.925Z,24.53
2022-12-25T09:27:36.279Z,32.07
2022-12-25T09:30:03.680Z,131.97
2022-12-25T09:32:30.064Z,54.93
2022-12-25T09:34:56.360Z,31.60
2022-12-25T09:37:22.672Z,90.73
2022-12-25T09:39:48.993Z,28.30
2022-12-25T09:42:20.601Z,25.47
2022-12-25T09:44:55.904Z,23.53
2022-12-25T09:47:30.303Z,21.17
2022-12-25T09:50:03.971Z,21.33
2022-12-25T09:52:44.857Z,55.10
2022-12-25T09:55:19.791Z,16.70
2022-12-25T09:57:52.140Z,26.63
2022-12-25T10:00:23.418Z,17.10
2022-12-25T10:03:22.933Z,18.47
2022-12-25T10:06:09.931Z,16.87
2022-12-25T10:08:57.048Z,53.90
2022-12-25T10:11:40.511Z,20.97
2022-12-25T10:14:24.464Z,26.73
2022-12-25T10:17:23.215Z,24.53
2022-12-25T10:20:02.494Z,21.37
2022-12-25T10:22:38.583Z,44.70
2022-12-25T10:25:06.907Z,23.07
2022-12-25T10:27:41.717Z,24.37
2022-12-25T10:30:21.208Z,21.27
2022-12-25T10:32:48.516Z,21.67
2022-12-25T10:35:18.574Z,23.87
2022-12-25T10:37:51.627Z,27.20
2022-12-25T10:40:23.707Z,24.77
2022-12-25T10:42:56.192Z,26.50
2022-12-25T10:45:22.666Z,21.93
2022-12-25T10:47:55.009Z,23.90
2022-12-25T10:50:28.336Z,23.17
2022-12-25T10:53:09.274Z,24.17
2022-12-25T10:55:35.603Z,25.23
2022-12-25T10:58:02.174Z,23.47
2022-12-25T11:00:31.438Z,30.00
2022-12-25T11:02:58.782Z,26.27
2022-12-25T11:05:34.165Z,27.07
2022-12-25T11:08:02.188Z,29.40
2022-12-25T11:10:43.702Z,27.30
2022-12-25T11:13:20.671Z,28.90
2022-12-25T11:16:00.448Z,33.53
2022-12-25T11:18:30.028Z,31.53
2022-12-25T11:21:15.219Z,34.37
2022-12-25T11:23:48.523Z,30.70
2022-12-25T11:26:15.860Z,33.10
2022-12-25T11:28:43.149Z,31.63
2022-12-25T11:31:19.570Z,29.80
2022-12-25T11:33:54.861Z,34.23
2022-12-25T11:36:36.307Z,33.83
2022-12-25T11:39:23.685Z,32.80
2022-12-25T11:41:56.464Z,28.57
2022-12-25T11:44:31.643Z,25.73
2022-12-25T11:47:12.645Z,32.23
2022-12-25T11:49:50.202Z,30.90
2022-12-25T11:52:18.531Z,29.23
2022-12-25T11:54:54.716Z,33.10
2022-12-25T11:57:23.221Z,30.07
2022-12-25T11:59:56.949Z,32.80
2022-12-25T12:02:32.454Z,32.90
2022-12-25T12:05:09.069Z,26.40
2022-12-25T12:07:37.381Z,24.77
2022-12-25T12:10:19.688Z,30.77
2022-12-25T12:12:52.205Z,27.73
2022-12-25T12:15:35.613Z,23.23
2022-12-25T12:18:16.645Z,21.80
2022-12-25T12:20:43.005Z,25.67
2022-12-25T12:23:17.041Z,35.97
2022-12-25T12:25:44.712Z,28.87
2022-12-25T12:28:22.522Z,27.17
2022-12-25T12:31:18.632Z,24.37
2022-12-25T12:33:57.423Z,22.30
2022-12-25T12:36:35.739Z,28.43
2022-12-25T12:39:05.784Z,26.93
2022-12-25T12:41:47.922Z,24.90
2022-12-25T12:44:17.123Z,23.53
2022-12-25T12:46:55.962Z,26.30
2022-12-25T12:49:25.652Z,24.43
2022-12-25T12:52:30.156Z,27.00
2022-12-25T12:55:04.220Z,30.80
2022-12-25T12:57:35.839Z,28.87
2022-12-25T13:00:09.876Z,27.60
2022-12-25T13:02:43.508Z,25.50
2022-12-25T13:05:34.759Z,26.97
2022-12-25T13:08:20.004Z,25.77
2022-12-25T13:11:06.422Z,25.50
2022-12-25T13:13:40.794Z,27.90
2022-12-25T13:16:16.598Z,25.67
2022-12-25T13:18:43.232Z,24.10
2022-12-25T13:21:19.339Z,30.23
2022-12-25T13:23:45.668Z,27.50
2022-12-25T13:26:15.378Z,32.43
2022-12-25T13:28:41.730Z,34.37
2022-12-25T13:31:14.191Z,31.10
2022-12-25T13:33:45.061Z,30.70
2022-12-25T13:36:12.930Z,37.70
2022-12-25T13:38:48.108Z,30.50
2022-12-25T13:41:45.088Z,37.30
2022-12-25T13:44:24.193Z,33.80
2022-12-25T13:46:50.728Z,31.13
2022-12-25T13:49:19.497Z,26.77
2022-12-25T13:51:46.694Z,26.87
2022-12-25T13:54:15.334Z,25.73
2022-12-25T13:56:51.027Z,22.80
2022-12-25T13:59:20.167Z,24.80
2022-12-25T14:01:47.525Z,26.90
2022-12-25T14:04:24.461Z,22.93
2022-12-25T14:06:52.487Z,45.83
2022-12-25T14:09:19.524Z,20.30
2022-12-25T14:11:50.313Z,19.13
2022-12-25T14:14:23.156Z,22.87
2022-12-25T14:16:53.111Z,20.70
2022-12-25T14:19:28.163Z,18.40
2022-12-25T14:22:02.197Z,22.33
2022-12-25T14:24:30.460Z,24.30
2022-12-25T14:27:02.889Z,21.03
2022-12-25T14:29:36.902Z,20.30
2022-12-25T14:32:06.112Z,19.30
2022-12-25T14:34:34.137Z,20.17
2022-12-25T14:37:03.128Z,19.73
2022-12-25T14:39:29.460Z,20.00
2022-12-25T14:41:56.400Z,17.17
2022-12-25T14:44:34.131Z,18.87
2022-12-25T14:47:20.246Z,20.57
2022-12-25T14:49:47.663Z,19.27
2022-12-25T14:52:19.361Z,20.63
2022-12-25T14:54:48.464Z,19.40
2022-12-25T14:57:26.919Z,18.77
2022-12-25T14:59:59.375Z,21.83
2022-12-25T15:02:26.201Z,20.07
2022-12-25T15:04:53.402Z,21.23
2022-12-25T15:07:31.249Z,19.23
2022-12-25T15:10:27.118Z,16.43
2022-12-25T15:12:43.978Z,17.73
2022-12-25T15:15:10.485Z,18.23
2022-12-25T15:17:38.011Z,17.13
2022-12-25T15:20:05.375Z,16.90
2022-12-25T15:22:54.051Z,22.83
2022-12-25T15:25:20.824Z,26.83
2022-12-25T15:27:47.833Z,18.73
2022-12-25T15:30:14.478Z,22.40
2022-12-25T15:32:40.840Z,18.23
2022-12-25T15:35:13.034Z,20.93
2022-12-25T15:37:39.406Z,18.20
2022-12-25T15:40:06.954Z,20.97
2022-12-25T15:42:33.495Z,18.27
2022-12-25T15:44:59.850Z,31.47
2022-12-25T15:47:26.488Z,34.00
2022-12-25T15:49:52.828Z,21.60
2022-12-25T15:52:19.168Z,18.80
2022-12-25T15:54:45.537Z,17.83
2022-12-25T15:57:22.041Z,20.80
2022-12-25T15:59:48.425Z,22.57
2022-12-25T16:02:20.701Z,23.03
2022-12-25T16:04:47.720Z,21.43
2022-12-25T16:07:23.008Z,21.33
2022-12-25T16:09:49.798Z,19.13
2022-12-25T16:12:16.221Z,22.57
2022-12-25T16:14:42.587Z,20.30
2022-12-25T16:17:12.668Z,22.90
2022-12-25T16:19:39.010Z,24.13
2022-12-25T16:22:23.008Z,23.07
2022-12-25T16:24:50.062Z,22.43
2022-12-25T16:27:16.434Z,19.70
2022-12-25T16:29:42.796Z,20.10
2022-12-25T16:32:13.535Z,21.83
2022-12-25T16:34:40.774Z,27.17
2022-12-25T16:37:07.665Z,25.57
2022-12-25T16:39:34.020Z,27.43
2022-12-25T16:42:00.630Z,29.53
2022-12-25T16:44:27.015Z,27.87
2022-12-25T16:46:53.378Z,27.90
2022-12-25T16:49:19.744Z,28.77
2022-12-25T16:51:46.133Z,28.90
2022-12-25T16:54:12.454Z,32.03
2022-12-25T16:56:38.795Z,39.70
2022-12-25T16:59:05.160Z,33.07
2022-12-25T17:01:31.636Z,34.60
2022-12-25T17:04:01.483Z,37.47
2022-12-25T17:06:28.428Z,34.93
2022-12-25T17:08:57.914Z,34.73
2022-12-25T17:11:27.273Z,32.87
2022-12-25T17:13:54.195Z,34.77
2022-12-25T17:16:23.316Z,32.53
2022-12-25T17:19:16.436Z,31.77
2022-12-25T17:21:42.759Z,34.73
2022-12-25T17:24:09.171Z,34.23
2022-12-25T17:26:35.922Z,32.90
2022-12-25T17:29:02.862Z,31.27
2022-12-25T17:31:29.433Z,32.97
2022-12-25T17:33:55.787Z,33.60
2022-12-25T17:36:22.708Z,31.83
2022-12-25T17:38:49.296Z,33.70
2022-12-25T17:41:17.312Z,36.57
2022-12-25T17:43:45.462Z,38.67
2022-12-25T17:46:17.795Z,39.57
2022-12-25T17:48:45.484Z,47.50
2022-12-25T17:51:14.201Z,44.80
2022-12-25T17:53:42.618Z,42.07
2022-12-25T17:56:10.933Z,52.50
2022-12-25T17:58:38.342Z,43.63
2022-12-25T18:01:06.792Z,41.37
2022-12-25T18:03:33.620Z,40.20
2022-12-25T18:06:00.868Z,31.73
2022-12-25T18:08:31.222Z,33.93
2022-12-25T18:11:04.840Z,33.67
2022-12-25T18:13:32.082Z,35.37
2022-12-25T18:16:03.164Z,32.97
2022-12-25T18:18:30.017Z,35.73
2022-12-25T18:20:56.584Z,40.60
2022-12-25T18:23:23.131Z,36.53
2022-12-25T18:25:49.470Z,41.97
2022-12-25T18:28:16.024Z,46.27
2022-12-25T18:30:43.420Z,62.77
2022-12-25T18:33:09.855Z,75.87
2022-12-25T18:35:42.699Z,190.90
2022-12-25T18:38:10.397Z,224.13
2022-12-25T18:40:45.309Z,316.70
2022-12-25T18:43:11.711Z,111.47
2022-12-25T18:45:38.759Z,153.40
2022-12-25T18:48:06.182Z,108.47
2022-12-25T18:50:37.344Z,81.13
2022-12-25T18:53:04.384Z,288.43
2022-12-25T18:55:31.320Z,239.17
2022-12-25T18:57:58.052Z,195.47
2022-12-25T19:00:25.269Z,86.60
2022-12-25T19:02:57.985Z,95.67
2022-12-25T19:05:25.062Z,93.73
2022-12-25T19:07:51.404Z,227.63
2022-12-25T19:10:18.005Z,246.23
2022-12-25T19:12:44.357Z,385.60
2022-12-25T19:15:10.963Z,113.93
2022-12-25T19:17:37.317Z,165.80
2022-12-25T19:20:05.639Z,143.50
2022-12-25T19:22:32.113Z,108.40
2022-12-25T19:24:58.495Z,404.90
2022-12-25T19:27:24.894Z,255.90
2022-12-25T19:29:51.263Z,170.73
2022-12-25T19:32:17.628Z,186.13
2022-12-25T19:34:44.115Z,356.13
2022-12-25T19:37:10.545Z,479.27
2022-12-25T19:39:37.457Z,378.73
2022-12-25T19:42:03.864Z,390.80
2022-12-25T19:44:30.198Z,181.67
2022-12-25T19:46:56.540Z,319.07
2022-12-25T19:49:22.928Z,88.60
2022-12-25T19:51:49.429Z,159.00
2022-12-25T19:54:18.663Z,191.90
2022-12-25T19:56:45.058Z,101.63
2022-12-25T19:59:12.141Z,181.87
2022-12-25T20:01:39.015Z,256.93
2022-12-25T20:04:08.573Z,102.13
2022-12-25T20:06:38.287Z,118.97
2022-12-25T20:09:12.160Z,108.13
2022-12-25T20:11:39.199Z,147.47
2022-12-25T20:14:07.362Z,129.87
2022-12-25T20:16:36.800Z,98.67
2022-12-25T20:19:04.286Z,239.57
2022-12-25T20:21:30.691Z,57.13
2022-12-25T20:23:57.678Z,213.13
2022-12-25T20:26:30.129Z,112.73
2022-12-25T20:28:57.233Z,135.10
2022-12-25T20:31:28.876Z,85.80
2022-12-25T20:33:57.121Z,95.73
2022-12-25T20:36:23.517Z,69.30
2022-12-25T20:38:50.022Z,80.37
2022-12-25T20:41:28.725Z,55.77
2022-12-25T20:43:56.507Z,54.20
2022-12-25T20:46:23.778Z,53.70
2022-12-25T20:48:50.274Z,96.80
2022-12-25T20:51:22.440Z,92.63
2022-12-25T20:53:49.145Z,46.97
2022-12-25T20:56:17.923Z,76.97
2022-12-25T20:58:44.711Z,53.00
2022-12-25T21:01:14.475Z,47.70
2022-12-25T21:03:41.792Z,54.87
2022-12-25T21:06:09.392Z,72.30
2022-12-25T21:08:36.484Z,72.17
2022-12-25T21:11:04.410Z,50.43
2022-12-25T21:13:36.614Z,62.13
2022-12-25T21:16:07.930Z,54.43
2022-12-25T21:18:34.366Z,59.33
2022-12-25T21:21:05.338Z,68.93
2022-12-25T21:23:32.303Z,89.30
2022-12-25T21:25:58.634Z,76.53
2022-12-25T21:28:30.005Z,81.93
2022-12-25T21:31:02.862Z,63.33
2022-12-25T21:33:47.720Z,71.37
2022-12-25T21:36:14.136Z,52.23
2022-12-25T21:38:40.515Z,147.03
2022-12-25T21:41:10.123Z,115.77
2022-12-25T21:43:38.772Z,64.73
2022-12-25T21:46:07.739Z,98.40
2022-12-25T21:48:35.879Z,55.53
2022-12-25T21:51:31.180Z,195.13
2022-12-25T21:53:58.995Z,127.10
2022-12-25T21:56:28.152Z,114.67
2022-12-25T21:58:54.561Z,69.47
2022-12-25T22:01:21.107Z,54.20
2022-12-25T22:03:47.560Z,102.50
2022-12-25T22:06:32.702Z,79.97
2022-12-25T22:08:59.046Z,81.93
2022-12-25T22:11:45.173Z,160.63
2022-12-25T22:14:52.833Z,168.20
2022-12-25T22:17:46.904Z,165.83
2022-12-25T22:20:29.966Z,142.10
2022-12-25T22:22:57.690Z,105.67
2022-12-25T22:25:24.818Z,166.63
2022-12-25T22:27:51.867Z,170.93
2022-12-25T22:30:24.732Z,100.60
2022-12-25T22:32:52.137Z,405.63
2022-12-25T22:35:18.621Z,341.43
2022-12-25T22:37:45.351Z,205.43
2022-12-25T22:40:14.772Z,218.27
2022-12-25T22:42:41.702Z,273.63
2022-12-25T22:45:08.729Z,169.67
2022-12-25T22:47:35.137Z,126.67
2022-12-25T22:50:01.688Z,123.13
2022-12-25T22:52:28.171Z,79.60
2022-12-25T22:54:54.629Z,135.87
2022-12-25T22:57:20.993Z,53.40
2022-12-25T22:59:47.375Z,141.67
2022-12-25T23:02:13.832Z,108.30
2022-12-25T23:04:40.312Z,285.57
2022-12-25T23:07:06.888Z,100.47
2022-12-25T23:09:34.097Z,78.00
2022-12-25T23:12:00.482Z,66.60
2022-12-25T23:14:39.588Z,112.33
2022-12-25T23:17:30.799Z,71.07
2022-12-25T23:20:17.071Z,84.93
2022-12-25T23:23:02.600Z,52.30
2022-12-25T23:25:48.636Z,44.53
2022-12-25T23:28:35.113Z,41.17
2022-12-25T23:31:01.627Z,52.43
2022-12-25T23:33:28.088Z,44.97
2022-12-25T23:35:54.431Z,71.70
2022-12-25T23:38:20.760Z,123.30
2022-12-25T23:40:47.093Z,55.10
2022-12-25T23:43:13.455Z,120.33
2022-12-25T23:45:39.785Z,48.50
2022-12-25T23:48:06.280Z,48.60
2022-12-25T23:50:33.716Z,37.80
2022-12-25T23:53:00.048Z,37.60
2022-12-25T23:55:26.404Z,59.03
2022-12-25T23:57:52.814Z,38.27
